Time;durP1;ratioP1;P1;durP2;ratioP2;P2;SDS_P1;SDS_P2;PMS_P1;PMS_P2;Temp;Humidity;BMP_temperature;BMP_pressure;BME280_temperature;BME280_humidity;BME280_pressure;Samples;Min_cycle;Max_cycle;Signal;HPM_P1;HPM_P2
2021/08/13 00:01:24;;;;;;;11.03;6.33;;;18.80;97.30;;;;;;5037682;28;20262;-85
2021/08/13 00:03:50;;;;;;;9.70;6.67;;;18.80;97.30;;;;;;5037402;28;20196;-86
2021/08/13 00:06:16;;;;;;;8.50;6.43;;;18.70;97.30;;;;;;5037892;28;20179;-85
2021/08/13 00:08:41;;;;;;;11.27;6.07;;;18.70;97.30;;;;;;5037058;28;20700;-85
2021/08/13 00:11:07;;;;;;;10.67;7.10;;;18.70;97.30;;;;;;5053912;28;20433;-84
2021/08/13 00:13:33;;;;;;;12.70;7.03;;;18.60;97.30;;;;;;5054104;28;20175;-85
2021/08/13 00:15:58;;;;;;;9.20;6.00;;;18.60;97.30;;;;;;5036676;28;20182;-85
2021/08/13 00:18:24;;;;;;;12.23;7.33;;;18.60;97.30;;;;;;5073972;28;20179;-84
2021/08/13 00:20:49;;;;;;;13.40;6.80;;;18.50;97.30;;;;;;5055215;28;20349;-84
2021/08/13 00:23:15;;;;;;;9.03;6.63;;;18.50;97.30;;;;;;5055598;28;20687;-85
2021/08/13 00:25:40;;;;;;;12.33;7.20;;;18.50;97.30;;;;;;5055771;28;20246;-86
2021/08/13 00:28:06;;;;;;;11.63;7.47;;;18.40;97.30;;;;;;5055891;28;20253;-85
2021/08/13 00:30:32;;;;;;;12.03;7.20;;;18.40;97.30;;;;;;5055581;28;20904;-86
2021/08/13 00:32:57;;;;;;;11.13;6.20;;;18.40;97.30;;;;;;5056651;28;20562;-86
2021/08/13 00:35:23;;;;;;;11.07;7.27;;;18.30;97.30;;;;;;5056658;28;20660;-86
2021/08/13 00:37:48;;;;;;;11.17;6.63;;;18.20;97.30;;;;;;5057011;28;20194;-86
2021/08/13 00:40:15;;;;;;;12.47;6.83;;;18.10;97.30;;;;;;5057054;28;20179;-85
2021/08/13 00:42:40;;;;;;;11.83;7.10;;;18.10;97.30;;;;;;5056793;28;20193;-86
2021/08/13 00:45:06;;;;;;;15.27;6.20;;;18.10;97.30;;;;;;5055756;28;20418;-86
2021/08/13 00:47:32;;;;;;;14.57;7.17;;;18.00;97.30;;;;;;5073407;28;20203;-85
2021/08/13 00:49:58;;;;;;;11.83;6.67;;;18.00;97.30;;;;;;5054767;28;20425;-84
2021/08/13 00:52:24;;;;;;;16.93;8.00;;;18.00;97.30;;;;;;5073047;28;20172;-86
2021/08/13 00:54:49;;;;;;;11.67;6.60;;;18.00;97.30;;;;;;5055377;28;20199;-85
2021/08/13 00:57:15;;;;;;;11.23;7.00;;;18.00;97.30;;;;;;5055116;28;20816;-85
2021/08/13 00:59:41;;;;;;;11.73;7.30;;;18.00;97.30;;;;;;5054856;28;20179;-85
2021/08/13 01:02:11;;;;;;;13.10;8.00;;;17.90;97.30;;;;;;5055379;28;20285;-85
2021/08/13 01:04:40;;;;;;;12.40;6.70;;;17.90;97.30;;;;;;5054673;28;20194;-85
2021/08/13 01:07:07;;;;;;;10.57;6.90;;;17.80;97.30;;;;;;5055420;28;20461;-85
2021/08/13 01:09:35;;;;;;;15.40;7.13;;;17.80;97.30;;;;;;5056266;28;20925;-86
2021/08/13 01:12:15;;;;;;;14.10;7.97;;;17.80;97.30;;;;;;5057493;28;21126;-86
2021/08/13 01:15:03;;;;;;;11.43;7.47;;;17.80;97.30;;;;;;5057199;28;21002;-85
2021/08/13 01:17:35;;;;;;;10.90;6.90;;;17.80;97.30;;;;;;5043061;28;20418;-86
2021/08/13 01:20:27;;;;;;;12.07;6.50;;;17.80;97.30;;;;;;5035368;28;20426;-85
2021/08/13 01:23:03;;;;;;;16.63;7.90;;;17.80;97.30;;;;;;5035699;28;21060;-85
2021/08/13 01:25:33;;;;;;;12.57;6.90;;;17.70;97.30;;;;;;5035518;28;20437;-86
2021/08/13 01:28:09;;;;;;;12.20;7.30;;;17.70;97.30;;;;;;5052877;28;20548;-85
2021/08/13 01:30:36;;;;;;;16.77;7.07;;;17.70;97.30;;;;;;5034446;28;20446;-85
2021/08/13 01:33:12;;;;;;;9.57;6.53;;;17.70;97.30;;;;;;5035124;28;20899;-86
2021/08/13 01:35:42;;;;;;;13.30;7.73;;;17.70;97.30;;;;;;5035068;28;20414;-86
2021/08/13 01:38:24;;;;;;;11.47;7.00;;;17.60;97.30;;;;;;5035040;28;20433;-86
2021/08/13 01:40:52;;;;;;;12.37;6.97;;;17.60;97.30;;;;;;5053241;28;20488;-86
2021/08/13 01:43:23;;;;;;;12.00;6.57;;;17.60;97.30;;;;;;5037271;28;20422;-86
2021/08/13 01:45:49;;;;;;;12.20;7.10;;;17.60;97.30;;;;;;5036302;28;20541;-86
2021/08/13 01:48:15;;;;;;;11.83;7.03;;;17.60;97.30;;;;;;5054030;28;20477;-86
2021/08/13 01:50:42;;;;;;;13.07;7.77;;;17.50;97.30;;;;;;5035282;28;20446;-86
2021/08/13 01:53:08;;;;;;;15.97;7.40;;;17.50;97.30;;;;;;5035380;28;20465;-86
2021/08/13 01:55:35;;;;;;;13.07;6.97;;;17.50;97.30;;;;;;5034612;28;20778;-86
2021/08/13 01:58:01;;;;;;;12.00;7.40;;;17.50;97.30;;;;;;5035191;28;20428;-85
2021/08/13 02:00:27;;;;;;;11.30;7.20;;;17.50;97.30;;;;;;5034456;28;20446;-85
2021/08/13 02:02:55;;;;;;;13.30;6.63;;;17.50;97.30;;;;;;5034126;28;20487;-85
2021/08/13 02:05:23;;;;;;;13.60;6.60;;;17.40;97.30;;;;;;5051921;28;20414;-86
2021/08/13 02:07:52;;;;;;;13.73;8.13;;;17.40;97.30;;;;;;5034137;28;20820;-85
2021/08/13 02:10:19;;;;;;;13.27;6.97;;;17.40;97.30;;;;;;5052070;28;21867;-86
2021/08/13 02:12:44;;;;;;;12.70;7.70;;;17.40;97.30;;;;;;5035445;28;20502;-86
2021/08/13 02:15:11;;;;;;;11.50;7.57;;;17.40;97.30;;;;;;5054177;28;20430;-86
2021/08/13 02:18:02;;;;;;;13.10;7.17;;;17.40;97.30;;;;;;5067862;28;20175;-85
2021/08/13 02:20:30;;;;;;;14.40;6.97;;;17.40;97.30;;;;;;5092673;28;20525;-86
2021/08/13 02:22:57;;;;;;;12.13;7.60;;;17.40;97.30;;;;;;5073910;28;20432;-85
2021/08/13 02:25:22;;;;;;;12.53;6.80;;;17.40;97.30;;;;;;5074088;28;20461;-85
2021/08/13 02:27:48;;;;;;;12.73;7.33;;;17.40;97.30;;;;;;5091433;28;20456;-86
2021/08/13 02:30:14;;;;;;;12.57;6.93;;;17.40;97.30;;;;;;5064588;28;20175;-85
2021/08/13 02:32:40;;;;;;;12.13;7.47;;;17.40;97.30;;;;;;5054673;28;20182;-86
2021/08/13 02:35:07;;;;;;;15.53;7.40;;;17.40;97.30;;;;;;5054400;28;20187;-85
2021/08/13 02:37:48;;;;;;;12.23;6.70;;;17.40;97.30;;;;;;5054463;28;20203;-86
2021/08/13 02:40:21;;;;;;;12.43;7.70;;;17.40;97.30;;;;;;5038144;28;20443;-85
2021/08/13 02:43:18;;;;;;;10.77;6.67;;;17.40;97.30;;;;;;5054729;28;20417;-85
2021/08/13 02:45:46;;;;;;;10.93;7.40;;;17.40;97.30;;;;;;5054828;28;20429;-86
2021/08/13 02:48:14;;;;;;;13.23;7.53;;;17.30;97.30;;;;;;5055617;28;20467;-85
2021/08/13 02:50:44;;;;;;;11.57;6.43;;;17.30;97.30;;;;;;5055859;28;21222;-86
2021/08/13 02:53:16;;;;;;;13.60;7.03;;;17.30;97.30;;;;;;5045589;28;20415;-85
2021/08/13 02:55:46;;;;;;;15.03;7.77;;;17.30;97.30;;;;;;5043142;28;20414;-85
2021/08/13 02:58:16;;;;;;;12.70;7.20;;;17.30;97.30;;;;;;5041851;28;20505;-86
2021/08/13 03:00:43;;;;;;;10.33;6.70;;;17.30;97.30;;;;;;5066267;28;20457;-86
2021/08/13 03:03:12;;;;;;;14.30;7.87;;;17.30;97.30;;;;;;5054886;28;20873;-86
2021/08/13 03:05:42;;;;;;;13.03;7.77;;;17.20;97.30;;;;;;5076253;28;20426;-86
2021/08/13 03:08:09;;;;;;;15.13;7.77;;;17.20;97.30;;;;;;5057422;28;20457;-85
2021/08/13 03:10:35;;;;;;;10.70;6.90;;;17.20;97.30;;;;;;5057512;28;20447;-85
2021/08/13 03:13:01;;;;;;;11.83;7.17;;;17.10;97.30;;;;;;5075458;28;20884;-85
2021/08/13 03:15:28;;;;;;;11.23;6.93;;;17.10;97.30;;;;;;5057421;28;20428;-85
2021/08/13 03:17:55;;;;;;;12.83;7.20;;;17.00;97.30;;;;;;5057934;28;20916;-84
2021/08/13 03:20:21;;;;;;;12.27;7.90;;;17.00;97.30;;;;;;5038120;28;20448;-84
2021/08/13 03:22:47;;;;;;;15.70;7.50;;;17.00;97.30;;;;;;5038643;28;20468;-84
2021/08/13 03:25:13;;;;;;;15.10;7.97;;;17.00;97.30;;;;;;5039584;28;20421;-86
2021/08/13 03:27:41;;;;;;;11.20;6.23;;;17.00;97.30;;;;;;5039177;28;21013;-84
2021/08/13 03:30:07;;;;;;;13.73;7.23;;;17.00;97.30;;;;;;5038660;28;20545;-84
2021/08/13 03:32:33;;;;;;;10.70;6.70;;;17.00;97.30;;;;;;5037409;28;20421;-84
2021/08/13 03:34:58;;;;;;;17.27;7.50;;;17.00;97.30;;;;;;5055874;28;20421;-85
2021/08/13 03:37:24;;;;;;;15.63;8.27;;;17.00;97.30;;;;;;5038266;28;20180;-86
2021/08/13 03:39:50;;;;;;;11.47;6.80;;;17.00;97.30;;;;;;5037773;28;20179;-86
2021/08/13 03:42:15;;;;;;;12.87;7.50;;;17.00;97.30;;;;;;5036669;28;20200;-86
2021/08/13 03:44:41;;;;;;;13.17;7.90;;;17.10;97.30;;;;;;5037223;28;20179;-86
2021/08/13 03:47:06;;;;;;;14.87;8.20;;;17.10;97.30;;;;;;5054929;28;20203;-86
2021/08/13 03:49:32;;;;;;;15.70;8.30;;;17.20;97.30;;;;;;5037351;28;20647;-86
2021/08/13 03:51:57;;;;;;;14.70;7.87;;;17.20;97.30;;;;;;5037330;28;20195;-85
2021/08/13 03:54:23;;;;;;;15.83;8.10;;;17.20;97.30;;;;;;5038109;28;20171;-85
2021/08/13 03:56:49;;;;;;;15.40;8.47;;;17.20;97.30;;;;;;5039089;28;20653;-86
2021/08/13 03:59:14;;;;;;;14.33;8.20;;;17.20;97.30;;;;;;5038445;28;20407;-86
2021/08/13 04:01:40;;;;;;;14.60;7.80;;;17.20;97.30;;;;;;5037878;28;20763;-86
2021/08/13 04:04:05;;;;;;;13.90;7.10;;;17.20;97.30;;;;;;5055907;28;20211;-85
2021/08/13 04:06:31;;;;;;;17.30;7.33;;;17.20;97.30;;;;;;5035982;28;20191;-85
2021/08/13 04:08:57;;;;;;;14.13;7.60;;;17.20;97.30;;;;;;5035975;28;20828;-85
2021/08/13 04:11:22;;;;;;;12.50;7.60;;;17.20;97.30;;;;;;5040016;28;20195;-85
2021/08/13 04:13:48;;;;;;;11.83;7.83;;;17.20;97.30;;;;;;5043357;28;20196;-85
2021/08/13 04:16:14;;;;;;;12.73;7.70;;;17.20;97.30;;;;;;5043833;28;20182;-85
2021/08/13 04:18:39;;;;;;;12.27;7.70;;;17.20;97.30;;;;;;5045845;28;20673;-85
2021/08/13 04:21:05;;;;;;;12.13;7.23;;;17.20;97.30;;;;;;5046267;28;20282;-86
2021/08/13 04:23:30;;;;;;;13.93;7.33;;;17.20;97.30;;;;;;5061015;28;20176;-87
2021/08/13 04:25:56;;;;;;;14.00;8.30;;;17.20;97.30;;;;;;5044231;28;20267;-86
2021/08/13 04:28:21;;;;;;;15.60;7.80;;;17.20;97.30;;;;;;5044379;28;20196;-85
2021/08/13 04:30:47;;;;;;;12.60;7.30;;;17.20;97.30;;;;;;5044998;28;20195;-84
2021/08/13 04:33:14;;;;;;;19.20;7.87;;;17.20;97.30;;;;;;5047521;28;20167;-84
2021/08/13 04:35:40;;;;;;;15.83;8.40;;;17.10;97.30;;;;;;5044128;28;20174;-83
2021/08/13 04:38:13;;;;;;;11.50;7.47;;;17.10;97.30;;;;;;5063436;28;20422;-86
2021/08/13 04:40:39;;;;;;;15.03;8.47;;;17.10;97.30;;;;;;5044538;28;20587;-84
2021/08/13 04:43:04;;;;;;;12.17;7.47;;;17.10;97.30;;;;;;5063863;28;20508;-85
2021/08/13 04:45:30;;;;;;;14.07;7.93;;;17.10;97.30;;;;;;5043323;28;20274;-85
2021/08/13 04:47:56;;;;;;;11.40;7.87;;;17.20;97.30;;;;;;5063383;28;20207;-84
2021/08/13 04:50:22;;;;;;;13.77;7.20;;;17.20;97.30;;;;;;5063023;28;20224;-85
2021/08/13 04:52:51;;;;;;;12.60;7.67;;;17.20;97.30;;;;;;5043037;28;20226;-85
2021/08/13 04:55:19;;;;;;;14.27;7.70;;;17.20;97.30;;;;;;5042745;28;20416;-85
2021/08/13 04:57:46;;;;;;;14.20;8.30;;;17.10;97.30;;;;;;5044969;28;20476;-85
2021/08/13 05:00:12;;;;;;;23.47;8.30;;;17.20;97.30;;;;;;5040365;28;20524;-86
2021/08/13 05:02:52;;;;;;;12.80;7.90;;;17.20;97.30;;;;;;5068749;28;20565;-77
2021/08/13 05:05:18;;;;;;;13.03;8.30;;;17.20;97.30;;;;;;5067076;28;20402;-75
2021/08/13 05:07:44;;;;;;;14.90;7.60;;;17.20;97.30;;;;;;5066224;28;20182;-74
2021/08/13 05:10:12;;;;;;;14.00;7.33;;;17.10;97.30;;;;;;5047410;28;20414;-74
2021/08/13 05:12:39;;;;;;;14.70;8.77;;;17.20;97.30;;;;;;5046841;28;20187;-74
2021/08/13 05:15:06;;;;;;;17.40;8.90;;;17.20;97.30;;;;;;5048704;28;20402;-75
2021/08/13 05:17:31;;;;;;;18.17;9.10;;;17.20;97.30;;;;;;5045856;28;20806;-75
2021/08/13 05:19:57;;;;;;;24.43;9.70;;;17.30;97.30;;;;;;5046651;28;20410;-75
2021/08/13 05:22:22;;;;;;;21.10;9.30;;;17.30;97.30;;;;;;5046049;28;20214;-75
2021/08/13 05:24:48;;;;;;;17.00;9.13;;;17.40;97.30;;;;;;5045611;28;20180;-75
2021/08/13 05:27:14;;;;;;;18.37;9.57;;;17.40;97.30;;;;;;5046896;28;20537;-75
2021/08/13 05:29:40;;;;;;;16.17;9.30;;;17.50;97.30;;;;;;5048041;28;20435;-75
2021/08/13 05:32:06;;;;;;;14.43;8.70;;;17.50;97.30;;;;;;5046982;28;20179;-75
2021/08/13 05:34:32;;;;;;;18.60;9.50;;;17.60;97.30;;;;;;5046668;28;20414;-75
2021/08/13 05:36:57;;;;;;;18.10;9.73;;;17.70;97.30;;;;;;5047811;28;20226;-75
2021/08/13 05:39:23;;;;;;;15.77;9.17;;;17.80;97.30;;;;;;5046396;28;20196;-74
2021/08/13 05:41:48;;;;;;;16.17;8.40;;;17.80;97.30;;;;;;5046555;28;20196;-74
2021/08/13 05:44:14;;;;;;;21.00;10.00;;;17.90;97.30;;;;;;5046834;28;20187;-75
2021/08/13 05:46:39;;;;;;;16.93;9.00;;;18.00;97.30;;;;;;5047781;28;20205;-75
2021/08/13 05:49:05;;;;;;;13.60;8.80;;;18.00;97.30;;;;;;5046069;28;20214;-74
2021/08/13 05:51:30;;;;;;;15.37;8.40;;;18.10;97.30;;;;;;5046394;28;20271;-75
2021/08/13 05:53:56;;;;;;;15.07;8.70;;;18.20;97.30;;;;;;5048185;28;20689;-75
2021/08/13 05:56:21;;;;;;;14.67;8.87;;;18.20;97.30;;;;;;5047357;28;20176;-75
2021/08/13 05:58:47;;;;;;;20.77;8.67;;;18.30;97.30;;;;;;5046185;28;20585;-75
2021/08/13 06:01:13;;;;;;;14.07;8.33;;;18.40;97.30;;;;;;5046776;28;20266;-74
2021/08/13 06:03:38;;;;;;;15.70;7.70;;;18.50;97.30;;;;;;5047428;28;20177;-75
2021/08/13 06:06:04;;;;;;;17.70;8.27;;;18.50;97.30;;;;;;5046485;28;20188;-75
2021/08/13 06:08:29;;;;;;;17.80;8.60;;;18.70;97.30;;;;;;5045606;28;20246;-75
2021/08/13 06:10:55;;;;;;;17.30;8.80;;;18.70;97.30;;;;;;5046807;28;20241;-75
2021/08/13 06:13:20;;;;;;;15.00;7.37;;;18.80;97.30;;;;;;5036954;28;20177;-76
2021/08/13 06:15:47;;;;;;;17.57;7.97;;;18.90;97.30;;;;;;5032225;28;20250;-75
2021/08/13 06:18:12;;;;;;;16.63;8.30;;;19.00;97.30;;;;;;5033407;28;20200;-74
2021/08/13 06:20:38;;;;;;;17.37;7.90;;;19.10;97.30;;;;;;5032648;28;20415;-75
2021/08/13 06:23:05;;;;;;;12.23;7.50;;;19.20;97.30;;;;;;5032608;28;20207;-75
2021/08/13 06:25:30;;;;;;;15.93;7.67;;;19.30;97.30;;;;;;5032357;28;20407;-77
2021/08/13 06:27:56;;;;;;;13.00;7.60;;;19.40;97.30;;;;;;5032197;28;21014;-76
2021/08/13 06:30:23;;;;;;;16.70;8.03;;;19.50;97.30;;;;;;5033615;28;20255;-75
2021/08/13 06:32:53;;;;;;;18.47;6.87;;;19.60;97.30;;;;;;5034043;28;20173;-76
2021/08/13 06:35:19;;;;;;;19.23;8.00;;;19.70;97.30;;;;;;5033840;28;20432;-75
2021/08/13 06:37:53;;;;;;;18.73;8.43;;;19.70;97.30;;;;;;5033691;28;20415;-75
2021/08/13 06:40:20;;;;;;;14.27;7.23;;;19.80;97.30;;;;;;5032138;28;20246;-74
2021/08/13 06:42:46;;;;;;;19.80;7.63;;;20.00;97.30;;;;;;5033727;28;20478;-74
2021/08/13 06:45:15;;;;;;;14.17;7.77;;;20.10;97.30;;;;;;5033610;28;20893;-75
2021/08/13 06:47:40;;;;;;;17.73;7.33;;;20.10;97.30;;;;;;5032171;28;20464;-75
2021/08/13 06:50:07;;;;;;;23.27;7.37;;;20.20;97.30;;;;;;5033694;28;20494;-75
2021/08/13 06:52:33;;;;;;;17.90;7.50;;;20.30;97.30;;;;;;5032266;28;20173;-75
2021/08/13 06:54:58;;;;;;;13.70;7.47;;;20.40;97.30;;;;;;5033594;28;20787;-75
2021/08/13 06:57:24;;;;;;;14.13;7.10;;;20.50;97.30;;;;;;5032155;28;20180;-74
2021/08/13 06:59:50;;;;;;;12.23;6.50;;;20.60;97.30;;;;;;5032393;28;20200;-75
2021/08/13 07:02:16;;;;;;;11.90;6.90;;;20.70;97.30;;;;;;5031858;28;20243;-75
2021/08/13 07:04:41;;;;;;;14.93;7.13;;;20.90;97.30;;;;;;5033222;28;20173;-75
2021/08/13 07:07:07;;;;;;;8.93;6.13;;;21.00;97.30;;;;;;5033109;28;20442;-74
2021/08/13 07:09:32;;;;;;;12.17;7.53;;;21.10;97.30;;;;;;5033028;28;20227;-75
2021/08/13 07:11:58;;;;;;;10.30;6.23;;;21.10;97.30;;;;;;5031897;28;20180;-75
2021/08/13 07:14:24;;;;;;;15.93;6.87;;;21.20;97.30;;;;;;5033171;28;20589;-75
2021/08/13 07:16:49;;;;;;;12.80;6.50;;;21.30;97.30;;;;;;5031821;28;20183;-75
2021/08/13 07:19:15;;;;;;;16.70;7.00;;;21.40;97.30;;;;;;5031698;28;20200;-75
2021/08/13 07:21:40;;;;;;;10.07;5.77;;;21.50;97.30;;;;;;5032028;28;20292;-75
2021/08/13 07:24:06;;;;;;;13.80;5.87;;;21.60;97.30;;;;;;5032108;28;20184;-75
2021/08/13 07:26:32;;;;;;;11.47;5.97;;;21.80;97.30;;;;;;5031216;28;20172;-75
2021/08/13 07:28:57;;;;;;;13.87;5.70;;;21.90;97.30;;;;;;5032661;28;20192;-75
2021/08/13 07:31:23;;;;;;;16.67;6.50;;;22.00;97.30;;;;;;5031275;28;20184;-74
2021/08/13 07:33:49;;;;;;;12.13;7.30;;;22.10;97.30;;;;;;5032783;28;20204;-75
2021/08/13 07:36:15;;;;;;;16.23;6.10;;;22.30;97.30;;;;;;5032740;28;20203;-74
2021/08/13 07:38:40;;;;;;;12.17;6.40;;;22.40;97.30;;;;;;5032374;28;20478;-75
2021/08/13 07:41:10;;;;;;;11.47;6.20;;;22.50;97.30;;;;;;5032212;28;20208;-75
2021/08/13 07:43:36;;;;;;;10.20;6.30;;;22.70;97.30;;;;;;5031298;28;20180;-74
2021/08/13 07:46:03;;;;;;;11.87;6.07;;;22.90;97.30;;;;;;5031352;28;20411;-75
2021/08/13 07:48:29;;;;;;;12.13;5.67;;;23.00;97.30;;;;;;5030998;28;20431;-74
2021/08/13 07:50:55;;;;;;;11.80;5.77;;;23.10;97.30;;;;;;5031457;28;20971;-74
2021/08/13 07:53:20;;;;;;;15.10;6.50;;;23.20;97.30;;;;;;5032072;28;20411;-75
2021/08/13 07:55:46;;;;;;;12.83;6.43;;;23.40;97.30;;;;;;5031021;28;20279;-74
2021/08/13 07:58:12;;;;;;;11.50;5.30;;;23.50;97.30;;;;;;5032041;28;20211;-75
2021/08/13 08:00:37;;;;;;;8.00;5.07;;;23.60;97.30;;;;;;5030718;28;20239;-75
2021/08/13 08:03:03;;;;;;;11.60;5.47;;;23.70;97.30;;;;;;5031035;28;20578;-74
2021/08/13 08:05:29;;;;;;;14.50;5.93;;;23.80;97.30;;;;;;5032028;28;20740;-74
2021/08/13 08:07:54;;;;;;;12.03;5.60;;;23.90;97.30;;;;;;5031923;28;20550;-74
2021/08/13 08:10:20;;;;;;;10.13;6.03;;;24.00;97.30;;;;;;5032143;28;20227;-74
2021/08/13 08:12:46;;;;;;;9.20;5.57;;;24.10;97.30;;;;;;5032053;28;20184;-74
2021/08/13 08:15:12;;;;;;;10.13;5.53;;;24.20;97.30;;;;;;5030512;28;20473;-75
2021/08/13 08:17:38;;;;;;;9.57;5.33;;;24.30;97.30;;;;;;5030729;28;20213;-74
2021/08/13 08:20:05;;;;;;;11.90;5.43;;;24.40;97.00;;;;;;5030290;28;20168;-74
2021/08/13 08:22:31;;;;;;;10.20;5.83;;;24.50;97.30;;;;;;5031681;28;20541;-75
2021/08/13 08:24:56;;;;;;;9.07;4.73;;;24.60;97.30;;;;;;5031710;28;20912;-75
2021/08/13 08:27:22;;;;;;;11.33;5.70;;;24.70;97.10;;;;;;5030467;28;20180;-75
2021/08/13 08:29:47;;;;;;;8.07;5.40;;;24.80;97.30;;;;;;5030203;28;20188;-75
2021/08/13 08:32:13;;;;;;;7.50;5.43;;;24.90;96.50;;;;;;5031613;28;20251;-75
2021/08/13 08:34:39;;;;;;;10.30;5.37;;;25.00;95.60;;;;;;5030247;28;20177;-75
2021/08/13 08:37:09;;;;;;;9.50;5.57;;;25.20;97.00;;;;;;5030143;28;20181;-75
2021/08/13 08:39:35;;;;;;;9.13;5.17;;;25.30;94.10;;;;;;5030335;28;20206;-74
2021/08/13 08:42:01;;;;;;;8.33;4.97;;;25.40;93.90;;;;;;5030494;28;20800;-75
2021/08/13 08:44:27;;;;;;;13.60;4.73;;;25.50;91.60;;;;;;5029870;28;20510;-74
2021/08/13 08:46:55;;;;;;;7.00;4.90;;;25.60;92.60;;;;;;5030179;28;20418;-75
2021/08/13 08:49:21;;;;;;;9.77;4.93;;;25.70;92.30;;;;;;5030003;28;20204;-75
2021/08/13 08:51:47;;;;;;;8.70;5.00;;;25.80;91.20;;;;;;5030208;28;20932;-74
2021/08/13 08:54:13;;;;;;;7.80;5.00;;;25.90;91.10;;;;;;5031254;28;20518;-74
2021/08/13 08:56:39;;;;;;;9.43;4.83;;;25.90;89.70;;;;;;5031312;28;20968;-74
2021/08/13 08:59:04;;;;;;;8.60;4.70;;;26.00;88.50;;;;;;5029940;28;20310;-74
2021/08/13 09:01:30;;;;;;;10.90;4.87;;;26.10;88.90;;;;;;5029899;28;20232;-74
2021/08/13 09:03:56;;;;;;;8.93;5.57;;;26.10;89.50;;;;;;5030051;28;20179;-73
2021/08/13 09:06:22;;;;;;;10.93;5.20;;;26.20;89.90;;;;;;5029926;28;20230;-74
2021/08/13 09:08:48;;;;;;;8.30;4.90;;;26.30;88.60;;;;;;5031195;28;20430;-74
2021/08/13 09:11:14;;;;;;;7.20;5.23;;;26.40;89.70;;;;;;5029903;28;20181;-74
2021/08/13 09:13:56;;;;;;;8.33;5.10;;;26.50;88.30;;;;;;5031176;28;20176;-74
2021/08/13 09:16:22;;;;;;;8.70;4.70;;;26.50;87.90;;;;;;5030663;28;20403;-73
2021/08/13 09:19:00;;;;;;;8.70;5.70;;;26.50;88.20;;;;;;5029807;28;20438;-74
2021/08/13 09:21:25;;;;;;;7.80;5.20;;;26.50;87.80;;;;;;5031336;28;20326;-74
2021/08/13 09:23:52;;;;;;;9.77;5.33;;;26.60;89.40;;;;;;5030861;28;20513;-74
2021/08/13 09:26:23;;;;;;;12.10;7.00;;;26.70;88.90;;;;;;5031067;28;20172;-74
2021/08/13 09:29:07;;;;;;;10.50;5.10;;;26.80;89.30;;;;;;5029661;28;20436;-74
2021/08/13 09:31:35;;;;;;;8.03;4.43;;;27.00;89.40;;;;;;5031165;28;20411;-74
2021/08/13 09:34:12;;;;;;;9.00;5.07;;;27.10;88.20;;;;;;5029761;28;20498;-74
2021/08/13 09:36:52;;;;;;;7.97;5.00;;;27.10;87.30;;;;;;5030817;28;20407;-75
2021/08/13 09:39:54;;;;;;;8.23;5.00;;;27.20;87.00;;;;;;5029637;28;20707;-74
2021/08/13 09:42:21;;;;;;;7.70;4.53;;;27.30;85.60;;;;;;5013692;28;20459;-75
2021/08/13 09:45:00;;;;;;;8.53;4.73;;;27.40;88.60;;;;;;5029723;28;20406;-74
2021/08/13 09:47:38;;;;;;;9.50;5.70;;;27.40;85.90;;;;;;5029564;28;20415;-74
2021/08/13 09:50:06;;;;;;;8.20;4.73;;;27.50;86.80;;;;;;5033390;28;20465;-74
2021/08/13 09:52:31;;;;;;;9.63;5.30;;;27.60;87.10;;;;;;5034556;28;20490;-74
2021/08/13 09:55:10;;;;;;;7.60;5.47;;;27.60;85.80;;;;;;5033118;28;20502;-75
2021/08/13 09:57:42;;;;;;;7.30;4.83;;;27.70;85.10;;;;;;5033141;28;20191;-74
2021/08/13 10:00:09;;;;;;;8.03;5.40;;;27.60;83.40;;;;;;5034503;28;20546;-74
2021/08/13 10:02:38;;;;;;;8.90;5.10;;;27.60;84.60;;;;;;5032405;28;20471;-73
2021/08/13 10:05:24;;;;;;;10.77;6.17;;;27.70;84.10;;;;;;5033064;28;20496;-73
2021/08/13 10:08:01;;;;;;;7.70;5.17;;;27.80;84.00;;;;;;5033832;28;20817;-74
2021/08/13 10:10:28;;;;;;;10.37;5.80;;;27.80;83.40;;;;;;5033084;28;20419;-74
2021/08/13 10:12:54;;;;;;;10.70;6.00;;;27.90;84.50;;;;;;5033892;28;20403;-74
2021/08/13 10:15:28;;;;;;;8.93;6.30;;;28.00;84.80;;;;;;5034168;28;20411;-74
2021/08/13 10:17:56;;;;;;;8.67;4.97;;;28.00;84.00;;;;;;5032665;28;20433;-74
2021/08/13 10:20:23;;;;;;;10.80;5.93;;;28.10;84.60;;;;;;5032759;28;20422;-74
2021/08/13 10:22:48;;;;;;;8.83;5.20;;;28.20;86.00;;;;;;5032600;28;20461;-74
2021/08/13 10:25:14;;;;;;;9.27;5.83;;;28.30;86.20;;;;;;5033745;28;20741;-74
2021/08/13 10:27:40;;;;;;;7.10;4.90;;;28.40;83.10;;;;;;5033947;28;20175;-74
2021/08/13 10:30:06;;;;;;;11.87;7.17;;;28.30;83.80;;;;;;5033948;28;20204;-74
2021/08/13 10:32:33;;;;;;;10.60;6.20;;;28.20;81.20;;;;;;5033567;28;20446;-73
2021/08/13 10:34:59;;;;;;;11.13;6.20;;;28.20;82.30;;;;;;5033548;28;20180;-73
2021/08/13 10:37:26;;;;;;;10.90;5.90;;;28.30;82.60;;;;;;5033547;28;20818;-73
2021/08/13 10:39:55;;;;;;;9.27;6.23;;;28.40;80.80;;;;;;5032205;28;20279;-74
2021/08/13 10:42:23;;;;;;;9.77;5.90;;;28.40;80.80;;;;;;5032230;28;20980;-74
2021/08/13 10:44:54;;;;;;;8.20;5.63;;;28.50;80.80;;;;;;5032136;28;20928;-74
2021/08/13 10:47:26;;;;;;;9.00;5.37;;;28.50;81.60;;;;;;5033571;28;20757;-74
2021/08/13 10:49:53;;;;;;;9.00;5.90;;;28.60;80.80;;;;;;5033154;28;20838;-73
2021/08/13 10:52:34;;;;;;;7.63;5.30;;;28.60;80.20;;;;;;5031773;28;20464;-73
2021/08/13 10:55:01;;;;;;;7.27;5.03;;;28.70;79.30;;;;;;5033510;28;20435;-74
2021/08/13 10:57:49;;;;;;;11.03;5.60;;;28.80;79.50;;;;;;5032079;28;20763;-73
2021/08/13 11:00:21;;;;;;;11.93;5.53;;;28.90;78.80;;;;;;5031883;28;20465;-74
2021/08/13 11:03:17;;;;;;;8.50;5.90;;;28.90;79.10;;;;;;5031360;28;20479;-74
2021/08/13 11:05:53;;;;;;;7.87;5.70;;;29.00;80.20;;;;;;5031586;28;20412;-74
2021/08/13 11:08:19;;;;;;;7.30;5.60;;;29.10;78.90;;;;;;5032820;28;20427;-74
2021/08/13 11:10:47;;;;;;;10.67;5.70;;;29.10;78.70;;;;;;5031504;28;20412;-74
2021/08/13 11:13:17;;;;;;;8.83;5.80;;;29.20;79.30;;;;;;5032905;28;20222;-74
2021/08/13 11:15:43;;;;;;;8.53;5.33;;;29.20;79.50;;;;;;5032889;28;20440;-74
2021/08/13 11:18:28;;;;;;;9.93;5.77;;;29.30;80.40;;;;;;5032716;28;20952;-73
2021/08/13 11:20:53;;;;;;;10.33;6.70;;;29.40;80.30;;;;;;5032443;28;20425;-73
2021/08/13 11:23:19;;;;;;;7.93;5.33;;;29.60;80.90;;;;;;5032743;28;20407;-74
2021/08/13 11:25:46;;;;;;;9.53;5.20;;;29.70;78.70;;;;;;5031476;28;20177;-74
2021/08/13 11:28:20;;;;;;;9.50;5.50;;;29.70;79.00;;;;;;5032826;28;20189;-74
2021/08/13 11:30:47;;;;;;;13.97;4.83;;;29.80;81.10;;;;;;5031199;28;20783;-74
2021/08/13 11:33:31;;;;;;;10.20;5.43;;;29.90;79.10;;;;;;5032485;28;20411;-74
2021/08/13 11:35:58;;;;;;;8.80;5.60;;;29.80;78.40;;;;;;5032730;28;20406;-74
2021/08/13 11:38:42;;;;;;;9.97;5.50;;;29.80;78.80;;;;;;5032195;28;20427;-73
2021/08/13 11:41:23;;;;;;;8.50;5.50;;;29.90;78.30;;;;;;5031191;28;20451;-73
2021/08/13 11:43:50;;;;;;;11.27;6.00;;;29.80;77.50;;;;;;5032211;28;20936;-74
2021/08/13 11:46:32;;;;;;;9.80;5.50;;;29.80;77.40;;;;;;5031064;28;20986;-74
2021/08/13 11:48:59;;;;;;;12.83;6.20;;;29.80;77.10;;;;;;5032142;28;20423;-74
2021/08/13 11:51:26;;;;;;;9.87;6.43;;;30.00;78.60;;;;;;5030636;28;20419;-73
2021/08/13 11:53:53;;;;;;;11.57;6.47;;;30.10;76.10;;;;;;5030745;28;20502;-74
2021/08/13 11:56:29;;;;;;;10.33;6.67;;;30.10;75.70;;;;;;5030858;28;20411;-74
2021/08/13 11:59:07;;;;;;;9.10;6.20;;;30.10;76.60;;;;;;5031987;28;20924;-73
2021/08/13 12:01:50;;;;;;;10.10;5.90;;;30.20;75.90;;;;;;5030202;28;20486;-74
2021/08/13 12:04:20;;;;;;;13.80;6.40;;;30.10;76.90;;;;;;5031818;28;20415;-74
2021/08/13 12:07:06;;;;;;;10.73;6.40;;;30.20;77.50;;;;;;5030589;28;20506;-74
2021/08/13 12:09:40;;;;;;;12.43;6.67;;;30.20;76.60;;;;;;5030439;28;20462;-73
2021/08/13 12:12:08;;;;;;;9.00;5.73;;;30.20;76.60;;;;;;5031363;28;20403;-74
2021/08/13 12:14:35;;;;;;;9.33;5.60;;;30.30;77.10;;;;;;5032090;28;20408;-74
2021/08/13 12:17:01;;;;;;;10.70;6.30;;;30.40;76.10;;;;;;5031432;28;20454;-73
2021/08/13 12:19:26;;;;;;;13.90;6.17;;;30.30;76.50;;;;;;5030271;28;20876;-74
2021/08/13 12:22:00;;;;;;;8.30;5.30;;;30.30;77.60;;;;;;5030209;28;20491;-73
2021/08/13 12:24:31;;;;;;;8.03;5.80;;;30.30;76.60;;;;;;5030478;28;20172;-74
2021/08/13 12:26:59;;;;;;;9.13;5.90;;;30.30;77.90;;;;;;5031354;28;20417;-74
2021/08/13 12:29:26;;;;;;;11.00;6.23;;;30.30;75.80;;;;;;5030271;28;20426;-73
2021/08/13 12:31:57;;;;;;;10.00;6.27;;;30.30;76.50;;;;;;5031089;28;20411;-74
2021/08/13 12:34:25;;;;;;;9.53;6.57;;;30.10;76.00;;;;;;5031513;28;20404;-73
2021/08/13 12:37:11;;;;;;;9.73;6.83;;;30.20;77.00;;;;;;5031383;28;20548;-73
2021/08/13 12:39:40;;;;;;;8.13;5.87;;;30.40;78.10;;;;;;5031330;28;20454;-72
2021/08/13 12:42:07;;;;;;;11.67;6.60;;;30.50;76.10;;;;;;5031389;28;20450;-73
2021/08/13 12:44:39;;;;;;;11.50;7.13;;;30.60;75.00;;;;;;5031499;28;20813;-72